createdAt,value
2023-03-28T00:00:49.922Z,98391.69
2023-03-28T00:06:27.192Z,98390.73
2023-03-28T00:12:06.013Z,98390.36
2023-03-28T00:18:16.809Z,98390.21
2023-03-28T00:24:48.589Z,98388.55
2023-03-28T00:31:15.521Z,98394.05
2023-03-28T00:37:10.367Z,98393.38
2023-03-28T00:42:43.697Z,98393.70
2023-03-28T00:47:57.334Z,98396.00
2023-03-28T01:04:02.607Z,98394.36
2023-03-28T01:09:18.656Z,98395.23
2023-03-28T01:14:50.456Z,98392.99
2023-03-28T01:20:34.853Z,98391.62
2023-03-28T01:26:23.810Z,98398.44
2023-03-28T01:33:05.009Z,98396.27
2023-03-28T01:39:09.847Z,98387.02
2023-03-28T01:44:46.365Z,98384.93
2023-03-28T01:50:12.564Z,98376.77
2023-03-28T01:56:03.941Z,98378.54
2023-03-28T02:01:36.392Z,98382.45
2023-03-28T02:07:23.064Z,98376.27
2023-03-28T02:13:50.346Z,98371.96
2023-03-28T02:20:36.453Z,98374.27
2023-03-28T02:26:47.803Z,98369.28
2023-03-28T02:32:07.335Z,98368.91
2023-03-28T02:38:15.787Z,98363.90
2023-03-28T02:43:55.289Z,98364.36
2023-03-28T02:50:21.084Z,98366.38
2023-03-28T02:55:59.857Z,98360.95
2023-03-28T03:01:41.121Z,98359.76
2023-03-28T03:07:18.872Z,98357.98
2023-03-28T03:12:25.805Z,98362.68
2023-03-28T03:17:39.859Z,98356.29
2023-03-28T03:23:04.693Z,98358.77
2023-03-28T03:28:51.318Z,98356.95
2023-03-28T03:34:07.160Z,98353.82
2023-03-28T03:39:32.609Z,98350.27
2023-03-28T03:44:43.076Z,98346.66
2023-03-28T03:50:20.121Z,98341.58
2023-03-28T03:55:50.262Z,98342.36
2023-03-28T04:01:03.062Z,98344.42
2023-03-28T04:06:29.509Z,98348.58
2023-03-28T04:11:46.465Z,98356.84
2023-03-28T04:16:56.087Z,98359.45
2023-03-28T04:22:03.939Z,98356.30
2023-03-28T04:27:34.328Z,98358.55
2023-03-28T04:32:40.261Z,98356.30
2023-03-28T04:38:03.457Z,98358.88
2023-03-28T04:43:10.064Z,98357.89
2023-03-28T04:48:56.376Z,98352.23
2023-03-28T04:54:07.695Z,98348.39
2023-03-28T04:59:27.772Z,98351.73
2023-03-28T05:04:52.073Z,98361.91
2023-03-28T05:10:35.174Z,98361.44
2023-03-28T05:16:50.289Z,98356.71
2023-03-28T05:22:39.449Z,98364.40
2023-03-28T05:28:23.070Z,98360.56
2023-03-28T05:33:48.484Z,98364.52
2023-03-28T05:39:00.156Z,98361.20
2023-03-28T05:44:16.818Z,98368.39
2023-03-28T05:49:48.124Z,98376.28
2023-03-28T05:54:55.671Z,98375.08
2023-03-28T06:00:13.280Z,98381.36
2023-03-28T06:05:29.061Z,98385.91
2023-03-28T06:10:32.239Z,98390.00
2023-03-28T06:16:04.453Z,98386.58
2023-03-28T06:21:17.964Z,98396.88
2023-03-28T06:26:25.127Z,98411.52
2023-03-28T06:31:50.611Z,98427.98
2023-03-28T06:37:59.777Z,98455.46
2023-03-28T06:43:22.597Z,98471.45
2023-03-28T06:48:50.085Z,98471.95
2023-03-28T06:54:18.963Z,98469.85
2023-03-28T06:59:24.409Z,98476.41
2023-03-28T07:04:45.919Z,98482.49
2023-03-28T07:09:54.138Z,98485.73
2023-03-28T07:15:00.717Z,98504.16
2023-03-28T07:20:45.666Z,98519.64
2023-03-28T07:26:09.407Z,98520.88
2023-03-28T07:31:41.985Z,98533.11
2023-03-28T07:36:48.055Z,98526.16
2023-03-28T07:42:32.960Z,98536.34
2023-03-28T07:47:59.474Z,98544.12
2023-03-28T07:53:27.702Z,98560.84
2023-03-28T07:59:04.798Z,98573.58
2023-03-28T08:04:18.912Z,98587.45
2023-03-28T08:09:46.811Z,98603.95
2023-03-28T08:15:07.395Z,98610.46
2023-03-28T08:20:15.594Z,98620.05
2023-03-28T08:25:56.019Z,98627.65
2023-03-28T08:31:28.833Z,98628.89
2023-03-28T08:37:03.736Z,98620.71
2023-03-28T08:42:46.487Z,98623.55
2023-03-28T08:48:16.291Z,98645.39
2023-03-28T08:53:38.450Z,98666.15
2023-03-28T08:59:07.688Z,98670.71
2023-03-28T09:04:46.181Z,98674.91
2023-03-28T09:10:08.697Z,98682.68
2023-03-28T09:15:53.728Z,98682.31
2023-03-28T09:22:15.864Z,98686.56
2023-03-28T09:27:33.958Z,98691.07
2023-03-28T09:32:46.041Z,98698.46
2023-03-28T09:38:13.361Z,98706.87
2023-03-28T09:43:28.530Z,98722.65
2023-03-28T09:49:15.013Z,98731.38
2023-03-28T09:54:52.983Z,98729.31
2023-03-28T10:00:05.728Z,98730.56
2023-03-28T10:05:51.105Z,98740.38
2023-03-28T10:12:06.711Z,98749.29
2023-03-28T10:17:53.465Z,98743.80
2023-03-28T10:23:36.622Z,98745.96
2023-03-28T10:29:12.052Z,98756.66
2023-03-28T10:34:59.908Z,98758.44
2023-03-28T10:40:18.658Z,98752.20
2023-03-28T10:45:59.139Z,98756.52
2023-03-28T10:51:38.047Z,98751.93
2023-03-28T10:56:58.477Z,98741.24
2023-03-28T11:02:41.236Z,98750.44
2023-03-28T11:08:04.461Z,98785.60
2023-03-28T11:14:14.169Z,98817.76
2023-03-28T11:19:57.883Z,98813.77
2023-03-28T11:25:40.759Z,98802.99
2023-03-28T11:31:17.157Z,98800.67
2023-03-28T11:36:48.294Z,98798.29
2023-03-28T11:41:53.670Z,98790.58
2023-03-28T11:47:11.845Z,98801.16
2023-03-28T11:52:36.623Z,98830.92
2023-03-28T11:58:05.278Z,98852.50
2023-03-28T12:03:31.424Z,98862.11
2023-03-28T12:09:44.938Z,98859.88
2023-03-28T12:15:05.432Z,98868.85
2023-03-28T12:21:01.604Z,98859.91
2023-03-28T12:26:26.312Z,98857.23
2023-03-28T12:31:59.942Z,98855.07
2023-03-28T12:37:35.885Z,98858.86
2023-03-28T12:43:08.420Z,98859.21
2023-03-28T12:48:29.553Z,98873.95
2023-03-28T12:54:05.433Z,98884.06
2023-03-28T12:59:51.751Z,98886.73
2023-03-28T13:05:38.230Z,98883.09
2023-03-28T13:11:23.983Z,98864.87
2023-03-28T13:16:45.633Z,98869.30
2023-03-28T13:21:57.458Z,98868.95
2023-03-28T13:27:08.927Z,98864.88
2023-03-28T13:32:25.345Z,98864.66
2023-03-28T13:37:47.375Z,98864.90
2023-03-28T13:43:26.073Z,98886.08
2023-03-28T13:48:33.743Z,98922.80
2023-03-28T13:53:50.438Z,98929.80
2023-03-28T13:59:02.296Z,98916.90
2023-03-28T14:04:18.545Z,98918.06
2023-03-28T14:09:33.119Z,98912.82
2023-03-28T14:15:09.778Z,98903.36
2023-03-28T14:20:30.225Z,98905.27
2023-03-28T14:26:31.775Z,98919.19
2023-03-28T14:32:04.309Z,98945.13
2023-03-28T14:37:17.937Z,98931.80
2023-03-28T14:42:23.941Z,98931.20
2023-03-28T14:47:34.736Z,98937.71
2023-03-28T14:52:40.436Z,98958.09
2023-03-28T14:58:01.836Z,98971.66
2023-03-28T15:03:19.952Z,98966.91
2023-03-28T15:08:31.097Z,98967.45
2023-03-28T15:13:44.896Z,98967.60
2023-03-28T15:19:18.338Z,98963.30
2023-03-28T15:24:20.823Z,98963.42
2023-03-28T15:29:27.929Z,98957.41
2023-03-28T15:34:48.211Z,98966.80
2023-03-28T15:39:52.612Z,98964.33
2023-03-28T15:44:57.849Z,98958.23
2023-03-28T15:50:04.580Z,98958.30
2023-03-28T15:55:08.605Z,98964.86
2023-03-28T16:00:39.079Z,98977.20
2023-03-28T16:06:31.542Z,98985.58
2023-03-28T16:12:39.439Z,99006.05
2023-03-28T16:19:36.464Z,99003.60
2023-03-28T16:24:54.294Z,99011.89
2023-03-28T16:29:56.278Z,99030.80
2023-03-28T16:35:01.543Z,99041.20
2023-03-28T16:40:06.612Z,99042.93
2023-03-28T16:45:12.063Z,99051.92
2023-03-28T16:50:15.175Z,99062.77
2023-03-28T16:56:33.251Z,99068.63
2023-03-28T17:02:54.501Z,99079.39
2023-03-28T17:09:15.792Z,99094.94
2023-03-28T17:14:40.969Z,99096.20
2023-03-28T17:19:43.192Z,99106.33
2023-03-28T17:25:12.011Z,99118.50
2023-03-28T17:30:17.101Z,99128.02
2023-03-28T17:35:21.857Z,99134.42
2023-03-28T17:40:29.268Z,99140.97
2023-03-28T17:45:40.283Z,99149.37
2023-03-28T17:51:12.063Z,99161.95
2023-03-28T17:56:37.785Z,99170.43
2023-03-28T18:01:40.463Z,99179.97
2023-03-28T18:06:56.700Z,99183.83
2023-03-28T18:11:58.737Z,99192.20
2023-03-28T18:17:29.996Z,99193.00
2023-03-28T18:23:09.910Z,99199.71
2023-03-28T18:28:35.870Z,99202.88
2023-03-28T18:33:42.366Z,99205.87
2023-03-28T18:38:47.073Z,99213.76
2023-03-28T18:43:54.213Z,99226.34
2023-03-28T18:48:58.262Z,99231.02
2023-03-28T18:54:00.354Z,99237.69
2023-03-28T18:59:05.455Z,99242.23
2023-03-28T19:04:53.563Z,99250.17
2023-03-28T19:10:34.162Z,99249.17
2023-03-28T19:15:37.315Z,99251.88
2023-03-28T19:20:39.582Z,99253.27
2023-03-28T19:25:44.946Z,99255.63
2023-03-28T19:31:12.439Z,99258.17
2023-03-28T19:36:19.073Z,99262.23
2023-03-28T19:41:23.195Z,99265.25
2023-03-28T19:47:24.871Z,99267.12
2023-03-28T19:52:47.183Z,99268.57
2023-03-28T19:57:51.759Z,99266.81
2023-03-28T20:03:00.897Z,99267.71
2023-03-28T20:08:03.417Z,99271.80
2023-03-28T20:13:06.523Z,99274.19
2023-03-28T20:18:14.533Z,99267.98
2023-03-28T20:23:23.157Z,99273.09
2023-03-28T20:28:32.103Z,99270.53
2023-03-28T20:33:35.658Z,99271.34
2023-03-28T20:39:37.226Z,99274.00
2023-03-28T20:45:58.402Z,99275.13
2023-03-28T20:51:29.331Z,99276.47
2023-03-28T20:56:40.468Z,99276.97
2023-03-28T21:02:42.057Z,99281.67
2023-03-28T21:08:31.822Z,99287.42
2023-03-28T21:13:54.076Z,99289.51
2023-03-28T21:19:00.546Z,99292.25
2023-03-28T21:24:27.509Z,99290.97
2023-03-28T21:29:42.614Z,99289.67
2023-03-28T21:34:55.833Z,99286.35
2023-03-28T21:40:57.582Z,99288.80
2023-03-28T21:46:51.258Z,99294.06
2023-03-28T21:52:08.192Z,99295.95
2023-03-28T21:57:25.186Z,99299.00
2023-03-28T22:03:30.561Z,99292.05
2023-03-28T22:09:05.649Z,99291.89
2023-03-28T22:15:16.345Z,99285.98
2023-03-28T22:21:30.872Z,99295.39
2023-03-28T22:27:09.160Z,99301.80
2023-03-28T22:32:24.026Z,99311.48
2023-03-28T22:38:22.248Z,99320.81
2023-03-28T22:44:31.366Z,99319.58
2023-03-28T22:50:37.675Z,99320.11
2023-03-28T22:56:44.271Z,99315.77
2023-03-28T23:02:52.467Z,99312.85
2023-03-28T23:09:15.570Z,99318.13
2023-03-28T23:15:06.678Z,99318.84
2023-03-28T23:21:21.034Z,99320.74
2023-03-28T23:27:29.143Z,99331.35
2023-03-28T23:33:13.457Z,99328.27
2023-03-28T23:39:26.850Z,99329.56
2023-03-28T23:45:36.501Z,99328.97
2023-03-28T23:50:55.864Z,99329.98
2023-03-28T23:56:31.649Z,99323.50
